Time;durP1;ratioP1;P1;durP2;ratioP2;P2;SDS_P1;SDS_P2;PMS_P1;PMS_P2;Temp;Humidity;BMP_temperature;BMP_pressure;BME280_temperature;BME280_humidity;BME280_pressure;Samples;Min_cycle;Max_cycle;Signal;HPM_P1;HPM_P2
2023/10/26 00:01:56;;;;;;;11.90;11.60;;;24.30;83.30;;;;;;5040223;28;20564;-69
2023/10/26 00:04:23;;;;;;;10.10;9.90;;;24.30;83.30;;;;;;5039479;28;20560;-69
2023/10/26 00:06:51;;;;;;;10.80;10.50;;;24.30;83.30;;;;;;5042916;28;20472;-69
2023/10/26 00:09:18;;;;;;;11.53;11.13;;;24.30;83.30;;;;;;5043565;28;20555;-69
2023/10/26 00:11:45;;;;;;;10.60;10.40;;;24.30;83.30;;;;;;5041358;28;20479;-69
2023/10/26 00:14:12;;;;;;;10.37;10.17;;;24.20;83.20;;;;;;5040025;28;20473;-69
2023/10/26 00:16:39;;;;;;;9.57;9.27;;;24.20;83.20;;;;;;5041288;28;20477;-69
2023/10/26 00:19:05;;;;;;;9.80;9.50;;;24.20;83.20;;;;;;5043752;28;20495;-69
2023/10/26 00:21:32;;;;;;;10.53;10.30;;;24.30;83.20;;;;;;5043062;28;20518;-69
2023/10/26 00:24:01;;;;;;;9.50;9.30;;;24.20;83.10;;;;;;5039961;28;20539;-69
2023/10/26 00:26:27;;;;;;;9.80;9.50;;;24.20;83.00;;;;;;5039851;28;20512;-69
2023/10/26 00:28:54;;;;;;;10.97;10.67;;;24.30;83.10;;;;;;5042333;28;20500;-69
2023/10/26 00:31:20;;;;;;;10.23;9.93;;;24.30;83.00;;;;;;5040950;28;20485;-69
2023/10/26 00:33:47;;;;;;;10.33;10.03;;;24.30;83.00;;;;;;5042113;28;20433;-69
2023/10/26 00:36:14;;;;;;;10.73;10.43;;;24.30;83.00;;;;;;5043349;28;20256;-69
2023/10/26 00:38:41;;;;;;;8.80;8.60;;;24.20;82.80;;;;;;5041068;28;20926;-69
2023/10/26 00:41:09;;;;;;;9.27;9.03;;;24.20;82.80;;;;;;5039830;28;20461;-69
2023/10/26 00:43:36;;;;;;;9.37;9.17;;;24.20;82.80;;;;;;5039575;28;20477;-69
2023/10/26 00:46:04;;;;;;;9.67;9.47;;;24.20;82.90;;;;;;5043267;28;20551;-69
2023/10/26 00:48:32;;;;;;;9.80;9.60;;;24.20;82.80;;;;;;5042232;28;20564;-69
2023/10/26 00:50:59;;;;;;;9.70;9.50;;;24.20;82.80;;;;;;5039379;28;20933;-69
2023/10/26 00:53:26;;;;;;;9.10;8.90;;;24.20;82.70;;;;;;5039460;28;20469;-69
2023/10/26 00:55:53;;;;;;;10.10;9.87;;;24.20;82.70;;;;;;5042521;28;20529;-69
2023/10/26 00:58:22;;;;;;;9.60;9.40;;;24.20;82.60;;;;;;5042325;28;20464;-69
2023/10/26 01:00:49;;;;;;;9.63;9.43;;;24.20;82.60;;;;;;5039551;28;21042;-69
2023/10/26 01:03:16;;;;;;;8.90;8.70;;;24.20;82.70;;;;;;5043127;28;20950;-68
2023/10/26 01:05:43;;;;;;;9.33;9.13;;;24.20;82.80;;;;;;5041503;28;21053;-69
2023/10/26 01:08:09;;;;;;;9.03;8.83;;;24.20;82.90;;;;;;5039905;28;20496;-69
2023/10/26 01:10:37;;;;;;;9.37;9.07;;;24.20;82.80;;;;;;5040207;28;20828;-69
2023/10/26 01:13:04;;;;;;;9.30;9.10;;;24.20;82.80;;;;;;5042918;28;20904;-69
2023/10/26 01:15:32;;;;;;;9.43;9.23;;;24.30;82.90;;;;;;5042996;28;20432;-69
2023/10/26 01:17:59;;;;;;;9.60;9.40;;;24.20;82.70;;;;;;5039643;28;20488;-69
2023/10/26 01:20:26;;;;;;;10.00;9.27;;;24.20;82.60;;;;;;5039566;28;20476;-69
2023/10/26 01:22:54;;;;;;;8.60;8.40;;;24.20;82.60;;;;;;5042063;28;20524;-69
2023/10/26 01:25:21;;;;;;;13.20;12.80;;;24.20;82.50;;;;;;5042710;28;20480;-69
2023/10/26 01:27:48;;;;;;;12.77;12.47;;;24.20;82.50;;;;;;5040578;28;21005;-69
2023/10/26 01:30:16;;;;;;;12.23;11.93;;;24.20;82.40;;;;;;5039688;28;20499;-69
2023/10/26 01:32:43;;;;;;;11.90;11.60;;;24.20;82.40;;;;;;5040751;28;20437;-69
2023/10/26 01:35:10;;;;;;;11.73;11.43;;;24.20;82.40;;;;;;5042955;28;20459;-69
2023/10/26 01:37:39;;;;;;;11.37;11.07;;;24.20;82.40;;;;;;5041992;28;20491;-69
2023/10/26 01:40:09;;;;;;;12.97;12.63;;;24.20;82.40;;;;;;5036097;28;20806;-69
2023/10/26 01:42:36;;;;;;;12.00;11.70;;;24.20;82.40;;;;;;5042545;28;20432;-69
2023/10/26 01:45:03;;;;;;;11.90;11.60;;;24.20;82.30;;;;;;5039233;28;20508;-69
2023/10/26 01:47:30;;;;;;;12.87;12.57;;;24.20;82.20;;;;;;5039223;28;20515;-69
2023/10/26 01:49:59;;;;;;;9.20;9.00;;;24.20;82.20;;;;;;5041448;28;20444;-69
2023/10/26 01:52:26;;;;;;;10.10;9.90;;;24.20;82.30;;;;;;5037822;28;20453;-69
2023/10/26 01:54:52;;;;;;;9.57;9.37;;;24.20;82.20;;;;;;5042362;28;20484;-69
2023/10/26 01:57:21;;;;;;;8.93;8.73;;;24.20;82.30;;;;;;5046248;28;20468;-69
2023/10/26 01:59:48;;;;;;;9.47;9.27;;;24.20;82.30;;;;;;5044622;28;20515;-70
2023/10/26 02:02:14;;;;;;;9.23;9.03;;;24.20;82.20;;;;;;5042921;28;20720;-69
2023/10/26 02:04:41;;;;;;;9.20;9.00;;;24.20;82.20;;;;;;5043409;28;20480;-69
2023/10/26 02:07:08;;;;;;;9.50;9.30;;;24.20;82.20;;;;;;5046159;28;20463;-70
2023/10/26 02:09:35;;;;;;;9.80;9.60;;;24.20;82.10;;;;;;5041783;28;20481;-70
2023/10/26 02:12:02;;;;;;;9.57;9.37;;;24.20;82.00;;;;;;5042567;28;20486;-69
2023/10/26 02:14:30;;;;;;;9.80;9.60;;;24.20;82.00;;;;;;5042614;28;20477;-69
2023/10/26 02:16:57;;;;;;;9.17;8.97;;;24.20;81.90;;;;;;5045514;28;20483;-69
2023/10/26 02:19:24;;;;;;;9.20;9.00;;;24.20;82.00;;;;;;5046209;28;20488;-69
2023/10/26 02:21:51;;;;;;;9.90;9.50;;;24.20;82.00;;;;;;5043488;28;20472;-69
2023/10/26 02:24:18;;;;;;;9.50;9.30;;;24.20;82.00;;;;;;5042463;28;20473;-69
2023/10/26 02:26:45;;;;;;;9.47;9.27;;;24.20;82.10;;;;;;5043098;28;20477;-69
2023/10/26 02:29:12;;;;;;;9.60;9.40;;;24.20;82.00;;;;;;5045728;28;20487;-69
2023/10/26 02:31:40;;;;;;;10.40;10.00;;;24.20;82.00;;;;;;5044885;28;20935;-69
2023/10/26 02:34:07;;;;;;;9.77;9.57;;;24.20;82.00;;;;;;5042243;28;20477;-69
2023/10/26 02:36:34;;;;;;;9.47;9.27;;;24.20;82.00;;;;;;5042316;28;20473;-69
2023/10/26 02:39:01;;;;;;;9.93;9.73;;;24.20;82.10;;;;;;5044373;28;20499;-69
2023/10/26 02:41:28;;;;;;;9.80;9.50;;;24.20;82.10;;;;;;5045534;28;20464;-69
2023/10/26 02:43:55;;;;;;;9.13;8.93;;;24.10;81.90;;;;;;5042818;28;20909;-69
2023/10/26 02:46:23;;;;;;;9.60;9.40;;;24.20;82.00;;;;;;5041884;28;20508;-69
2023/10/26 02:48:51;;;;;;;9.90;9.70;;;24.20;82.00;;;;;;5058080;22;20484;-72
2023/10/26 02:51:18;;;;;;;9.70;9.50;;;24.20;81.90;;;;;;5033373;28;20477;-72
2023/10/26 02:53:45;;;;;;;9.20;9.00;;;24.20;81.70;;;;;;5033444;28;20522;-72
2023/10/26 02:56:12;;;;;;;9.77;9.57;;;24.20;81.60;;;;;;5033506;28;20469;-72
2023/10/26 02:58:39;;;;;;;9.50;9.30;;;24.20;81.60;;;;;;5033079;28;20562;-72
2023/10/26 03:01:05;;;;;;;9.77;9.57;;;24.20;81.60;;;;;;5033424;28;20469;-73
2023/10/26 03:03:32;;;;;;;10.80;10.50;;;24.20;81.60;;;;;;5033429;28;20480;-72
2023/10/26 03:06:02;;;;;;;10.50;10.20;;;24.20;81.50;;;;;;5032953;28;21007;-73
2023/10/26 03:08:29;;;;;;;10.37;10.13;;;24.20;81.50;;;;;;5032395;28;20477;-72
2023/10/26 03:10:56;;;;;;;9.60;9.40;;;24.20;81.50;;;;;;5033258;28;20528;-72
2023/10/26 03:13:22;;;;;;;9.90;9.70;;;24.20;81.40;;;;;;5033140;28;20526;-72
2023/10/26 03:15:49;;;;;;;10.57;10.37;;;24.20;81.50;;;;;;5033121;28;20473;-72
2023/10/26 03:18:16;;;;;;;9.93;9.73;;;24.20;81.40;;;;;;5032815;28;20512;-72
2023/10/26 03:20:43;;;;;;;10.33;10.03;;;24.20;81.40;;;;;;5033249;28;20472;-72
2023/10/26 03:23:11;;;;;;;11.20;10.90;;;24.20;81.40;;;;;;5032952;28;20487;-72
2023/10/26 03:25:38;;;;;;;11.07;10.73;;;24.10;81.30;;;;;;5032717;28;20516;-72
2023/10/26 03:28:05;;;;;;;10.63;10.43;;;24.10;81.50;;;;;;5032686;28;20497;-73
2023/10/26 03:30:32;;;;;;;10.50;10.30;;;24.10;81.40;;;;;;5032598;28;20487;-72
2023/10/26 03:32:59;;;;;;;9.83;9.63;;;24.10;81.40;;;;;;5032832;28;20928;-72
2023/10/26 03:35:26;;;;;;;10.30;10.10;;;24.10;81.30;;;;;;5032632;28;20483;-72
2023/10/26 03:37:53;;;;;;;10.00;9.80;;;24.10;81.30;;;;;;5032654;28;20476;-73
2023/10/26 03:40:21;;;;;;;10.27;10.07;;;24.10;81.10;;;;;;5032000;28;20473;-72
2023/10/26 03:42:48;;;;;;;10.20;10.00;;;24.20;81.10;;;;;;5032385;28;20472;-73
2023/10/26 03:45:15;;;;;;;10.53;10.23;;;24.20;81.10;;;;;;5032711;28;20476;-73
2023/10/26 03:47:41;;;;;;;10.27;10.00;;;24.20;81.00;;;;;;5032313;28;20469;-73
2023/10/26 03:50:08;;;;;;;11.13;10.93;;;24.20;80.90;;;;;;5031983;28;20473;-72
2023/10/26 03:52:35;;;;;;;10.40;10.13;;;24.20;80.80;;;;;;5032457;28;20202;-72
2023/10/26 03:55:04;;;;;;;10.63;10.33;;;24.20;80.80;;;;;;5032316;28;20442;-72
2023/10/26 03:57:33;;;;;;;10.73;10.50;;;24.20;80.90;;;;;;5032388;28;20445;-72
2023/10/26 04:00:00;;;;;;;11.67;11.23;;;24.30;81.00;;;;;;5031930;28;20924;-72
2023/10/26 04:02:27;;;;;;;12.50;12.10;;;24.30;81.10;;;;;;5032266;28;20849;-72
2023/10/26 04:04:54;;;;;;;12.20;11.63;;;24.30;81.10;;;;;;5032052;28;20511;-72
2023/10/26 04:07:21;;;;;;;12.30;12.00;;;24.30;81.10;;;;;;5031933;28;20501;-72
2023/10/26 04:09:48;;;;;;;12.60;12.20;;;24.30;81.10;;;;;;5032073;28;20495;-72
2023/10/26 04:12:14;;;;;;;13.00;12.60;;;24.30;81.10;;;;;;5032067;28;20873;-72
2023/10/26 04:14:43;;;;;;;12.40;12.10;;;24.30;81.10;;;;;;5032140;28;20909;-72
2023/10/26 04:17:12;;;;;;;13.87;13.47;;;24.40;81.30;;;;;;5031877;28;20488;-72
2023/10/26 04:19:39;;;;;;;13.03;12.63;;;24.30;81.20;;;;;;5031804;28;20986;-72
2023/10/26 04:22:06;;;;;;;12.43;12.03;;;24.40;81.30;;;;;;5023925;28;20498;-72
2023/10/26 04:24:34;;;;;;;13.50;12.90;;;24.40;81.60;;;;;;5032013;28;20471;-72
2023/10/26 04:27:01;;;;;;;15.10;14.00;;;24.50;81.90;;;;;;5031480;28;20480;-72
2023/10/26 04:29:28;;;;;;;14.13;13.53;;;24.50;82.30;;;;;;5031660;28;20464;-72
2023/10/26 04:31:56;;;;;;;16.10;14.27;;;24.50;82.80;;;;;;5031648;28;20479;-72
2023/10/26 04:34:23;;;;;;;15.07;14.13;;;24.50;84.30;;;;;;5031667;28;20437;-72
2023/10/26 04:36:50;;;;;;;15.20;14.10;;;24.60;85.40;;;;;;5031335;28;20469;-72
2023/10/26 04:39:18;;;;;;;16.10;15.00;;;24.50;86.70;;;;;;5031061;28;20535;-72
2023/10/26 04:41:45;;;;;;;14.77;13.90;;;24.60;87.90;;;;;;5031858;28;20445;-71
2023/10/26 04:44:12;;;;;;;17.23;15.53;;;24.50;89.90;;;;;;5031551;28;20480;-72
2023/10/26 04:46:39;;;;;;;15.10;14.00;;;24.60;88.70;;;;;;5031533;28;21030;-72
2023/10/26 04:49:07;;;;;;;14.07;13.20;;;24.50;87.90;;;;;;5031239;28;20911;-71
2023/10/26 04:51:34;;;;;;;15.63;14.83;;;24.60;87.70;;;;;;5031453;28;20476;-71
2023/10/26 04:54:01;;;;;;;21.30;20.00;;;24.60;86.90;;;;;;5031386;28;20875;-71
2023/10/26 04:56:28;;;;;;;19.83;18.53;;;24.50;86.70;;;;;;5031570;28;20487;-71
2023/10/26 04:58:55;;;;;;;16.47;15.50;;;24.50;86.80;;;;;;5031191;28;20975;-72
2023/10/26 05:01:22;;;;;;;18.30;17.50;;;24.50;86.50;;;;;;5031427;28;20444;-72
2023/10/26 05:03:49;;;;;;;13.90;13.40;;;24.50;86.60;;;;;;5031189;28;20476;-71
2023/10/26 05:06:17;;;;;;;14.07;13.37;;;24.40;86.50;;;;;;5031231;28;20472;-71
2023/10/26 05:08:44;;;;;;;14.67;13.93;;;24.40;86.50;;;;;;5031195;28;20464;-72
2023/10/26 05:11:11;;;;;;;15.00;13.90;;;24.30;86.40;;;;;;5031137;28;20469;-71
2023/10/26 05:13:38;;;;;;;14.90;13.80;;;24.30;86.40;;;;;;5031147;28;20476;-72
2023/10/26 05:16:05;;;;;;;13.63;12.93;;;24.30;86.40;;;;;;5031081;28;20465;-72
2023/10/26 05:18:32;;;;;;;14.70;13.97;;;24.30;86.40;;;;;;5031038;28;20512;-71
2023/10/26 05:20:59;;;;;;;14.00;13.20;;;24.20;86.20;;;;;;5031025;28;20455;-72
2023/10/26 05:23:27;;;;;;;15.20;13.93;;;24.20;86.30;;;;;;5031034;28;20473;-71
2023/10/26 05:25:54;;;;;;;14.33;13.73;;;24.20;86.40;;;;;;5030927;28;20473;-71
2023/10/26 05:28:21;;;;;;;15.20;14.33;;;24.10;86.40;;;;;;5030953;28;20489;-71
2023/10/26 05:30:48;;;;;;;13.50;13.10;;;24.10;86.40;;;;;;5033051;28;20487;-72
2023/10/26 05:33:15;;;;;;;15.17;14.47;;;24.10;86.40;;;;;;5034926;28;20472;-72
2023/10/26 05:35:43;;;;;;;14.87;14.00;;;24.00;86.40;;;;;;5034930;28;20449;-71
2023/10/26 05:38:10;;;;;;;15.33;14.23;;;24.00;86.50;;;;;;5026932;28;20902;-71
2023/10/26 05:40:38;;;;;;;14.30;13.50;;;24.00;86.60;;;;;;5034893;28;20507;-72
2023/10/26 05:43:05;;;;;;;13.93;13.33;;;23.90;86.50;;;;;;5034557;28;20473;-71
2023/10/26 05:45:37;;;;;;;15.07;14.37;;;23.90;86.50;;;;;;5034703;28;20883;-71
2023/10/26 05:48:05;;;;;;;15.20;14.40;;;23.90;86.60;;;;;;5034284;28;20493;-71
2023/10/26 05:50:32;;;;;;;12.67;12.00;;;23.80;86.50;;;;;;5034760;28;20732;-71
2023/10/26 05:52:59;;;;;;;14.80;14.10;;;23.80;86.60;;;;;;5034495;28;20484;-72
2023/10/26 05:55:26;;;;;;;14.97;14.13;;;23.80;86.70;;;;;;5034399;28;20948;-72
2023/10/26 05:57:54;;;;;;;14.17;13.60;;;23.70;86.60;;;;;;5034284;28;20896;-71
2023/10/26 06:00:21;;;;;;;14.30;13.40;;;23.70;86.70;;;;;;5034416;28;20445;-72
2023/10/26 06:02:48;;;;;;;13.47;12.90;;;23.70;86.80;;;;;;5034191;28;20867;-71
2023/10/26 06:05:15;;;;;;;14.77;14.17;;;23.70;86.90;;;;;;5034265;28;20862;-71
2023/10/26 06:07:41;;;;;;;15.40;14.70;;;23.60;86.80;;;;;;5034185;28;20508;-71
2023/10/26 06:10:09;;;;;;;13.60;13.10;;;23.60;86.90;;;;;;5034069;28;20464;-71
2023/10/26 06:12:36;;;;;;;14.30;13.70;;;23.60;87.00;;;;;;5034206;28;20456;-71
2023/10/26 06:15:05;;;;;;;14.10;13.50;;;23.60;87.10;;;;;;5034076;28;20571;-71
2023/10/26 06:17:32;;;;;;;13.70;13.20;;;23.50;87.10;;;;;;5034189;28;20465;-71
2023/10/26 06:19:59;;;;;;;13.40;12.90;;;23.50;87.10;;;;;;5034053;28;20489;-71
2023/10/26 06:22:26;;;;;;;14.20;13.53;;;23.50;87.20;;;;;;5034064;28;20476;-71
2023/10/26 06:24:53;;;;;;;14.40;13.70;;;23.50;87.20;;;;;;5033771;28;20476;-72
2023/10/26 06:27:20;;;;;;;15.53;14.73;;;23.50;87.30;;;;;;5033793;28;20511;-71
2023/10/26 06:29:47;;;;;;;15.27;14.27;;;23.40;87.20;;;;;;5033746;28;20473;-71
2023/10/26 06:32:15;;;;;;;14.10;13.67;;;23.40;87.20;;;;;;5033683;28;20488;-71
2023/10/26 06:34:43;;;;;;;14.87;14.23;;;23.40;87.20;;;;;;5033832;28;20473;-71
2023/10/26 06:37:10;;;;;;;14.57;13.87;;;23.40;87.30;;;;;;5033536;28;20444;-71
2023/10/26 06:39:37;;;;;;;14.90;14.40;;;23.30;87.30;;;;;;5033676;28;20511;-72
2023/10/26 06:42:04;;;;;;;14.23;13.70;;;23.40;87.50;;;;;;5032189;28;20475;-71
2023/10/26 06:44:31;;;;;;;15.00;14.37;;;23.30;87.40;;;;;;5033722;28;20484;-71
2023/10/26 06:46:57;;;;;;;14.63;13.80;;;23.30;87.40;;;;;;5033320;28;20519;-71
2023/10/26 06:49:26;;;;;;;14.97;14.27;;;23.30;87.50;;;;;;5032577;28;20504;-72
2023/10/26 06:51:53;;;;;;;16.50;15.90;;;23.30;87.40;;;;;;5032285;28;20859;-72
2023/10/26 06:54:19;;;;;;;14.57;14.13;;;23.40;87.50;;;;;;5032374;28;20887;-71
2023/10/26 06:56:46;;;;;;;15.17;14.47;;;23.30;87.50;;;;;;5032167;28;20495;-72
2023/10/26 06:59:13;;;;;;;14.07;13.57;;;23.40;87.60;;;;;;5032252;28;20457;-71
2023/10/26 07:01:40;;;;;;;14.20;13.70;;;23.40;87.60;;;;;;5032095;28;20484;-71
2023/10/26 07:04:07;;;;;;;14.97;14.30;;;23.30;87.60;;;;;;5032092;28;20477;-70
2023/10/26 07:06:35;;;;;;;14.20;13.70;;;23.30;87.60;;;;;;5032081;28;20517;-71
2023/10/26 07:09:03;;;;;;;15.40;14.70;;;23.30;87.70;;;;;;5032036;28;20501;-71
2023/10/26 07:11:31;;;;;;;14.03;13.63;;;23.30;87.70;;;;;;5032042;28;20476;-71
2023/10/26 07:13:58;;;;;;;14.13;13.73;;;23.30;87.70;;;;;;5031981;28;20526;-71
2023/10/26 07:16:25;;;;;;;14.83;14.30;;;23.30;87.70;;;;;;5031934;28;20880;-71
2023/10/26 07:18:52;;;;;;;15.03;14.20;;;23.30;87.80;;;;;;5031823;28;20554;-70
2023/10/26 07:21:18;;;;;;;13.93;13.43;;;23.30;87.80;;;;;;5031939;28;20441;-71
2023/10/26 07:23:47;;;;;;;13.67;13.27;;;23.20;87.70;;;;;;5032148;28;20859;-71
2023/10/26 07:26:17;;;;;;;15.10;14.50;;;23.30;87.90;;;;;;5024032;28;20449;-70
2023/10/26 07:28:44;;;;;;;14.40;13.90;;;23.20;87.80;;;;;;5031802;28;20908;-71
2023/10/26 07:31:17;;;;;;;14.57;14.07;;;23.20;87.70;;;;;;5031596;28;20469;-70
2023/10/26 07:33:44;;;;;;;14.93;14.43;;;23.20;87.80;;;;;;5031854;28;20487;-70
2023/10/26 07:36:11;;;;;;;14.70;14.20;;;23.20;87.90;;;;;;5031728;28;20469;-71
2023/10/26 07:38:38;;;;;;;14.33;13.77;;;23.20;87.90;;;;;;5031644;28;20526;-70
2023/10/26 07:41:07;;;;;;;14.90;14.13;;;23.20;87.90;;;;;;5031578;28;20452;-71
2023/10/26 07:43:34;;;;;;;15.50;14.80;;;23.20;88.00;;;;;;5031439;28;20444;-71
2023/10/26 07:46:01;;;;;;;14.57;14.17;;;23.10;87.90;;;;;;5031426;28;20445;-71
2023/10/26 07:48:28;;;;;;;15.07;14.27;;;23.10;87.90;;;;;;4989494;28;1209208;-71
2023/10/26 07:50:56;;;;;;;13.97;13.47;;;23.10;87.90;;;;;;5032343;28;20949;-71
2023/10/26 07:53:24;;;;;;;14.93;14.13;;;23.10;87.80;;;;;;5031941;28;20485;-71
2023/10/26 07:55:51;;;;;;;14.60;14.13;;;23.10;87.90;;;;;;5031909;28;20452;-71
2023/10/26 07:58:19;;;;;;;14.43;14.00;;;23.10;87.90;;;;;;5032160;28;20464;-71
2023/10/26 08:00:46;;;;;;;13.80;13.40;;;23.00;87.90;;;;;;5032171;28;20477;-71
2023/10/26 08:03:13;;;;;;;13.97;13.53;;;23.00;87.90;;;;;;5032235;28;20472;-71
2023/10/26 08:05:40;;;;;;;14.00;13.60;;;23.10;88.00;;;;;;5032032;28;20473;-71
2023/10/26 08:08:06;;;;;;;14.70;14.20;;;23.00;87.80;;;;;;5031809;28;20513;-71
2023/10/26 08:10:36;;;;;;;14.70;14.23;;;23.00;87.80;;;;;;5031927;28;20473;-71
2023/10/26 08:13:04;;;;;;;15.03;14.53;;;23.00;87.80;;;;;;5031861;28;20453;-71
2023/10/26 08:15:32;;;;;;;14.30;13.90;;;23.00;87.80;;;;;;5031823;28;20524;-71
2023/10/26 08:17:59;;;;;;;14.33;13.93;;;23.00;87.90;;;;;;5031785;28;20476;-71
2023/10/26 08:20:26;;;;;;;14.57;13.97;;;23.00;87.80;;;;;;5031877;28;20899;-71
2023/10/26 08:22:53;;;;;;;14.50;14.10;;;23.00;87.90;;;;;;5031542;28;20473;-71
2023/10/26 08:25:20;;;;;;;14.70;14.20;;;22.90;87.90;;;;;;5031604;28;20476;-71
2023/10/26 08:27:47;;;;;;;14.30;13.80;;;23.00;88.00;;;;;;5031615;28;20558;-71
2023/10/26 08:30:15;;;;;;;14.97;14.27;;;23.00;88.00;;;;;;5031520;28;20473;-71
2023/10/26 08:32:43;;;;;;;13.77;13.37;;;23.00;88.00;;;;;;5031686;28;20872;-71
2023/10/26 08:35:10;;;;;;;14.13;13.63;;;23.00;88.10;;;;;;5031489;28;20528;-71
2023/10/26 08:37:37;;;;;;;13.77;13.30;;;23.00;88.10;;;;;;5031944;28;20433;-71
2023/10/26 08:40:11;;;;;;;13.30;12.90;;;23.00;88.00;;;;;;5031670;28;20591;-71
2023/10/26 08:42:39;;;;;;;13.90;13.50;;;23.00;88.10;;;;;;5031498;28;20445;-71
2023/10/26 08:45:11;;;;;;;14.40;14.00;;;23.00;88.10;;;;;;5031257;28;20483;-71
2023/10/26 08:47:38;;;;;;;14.17;13.77;;;23.00;88.10;;;;;;5031290;28;20511;-71
2023/10/26 08:50:08;;;;;;;16.00;15.40;;;23.00;88.10;;;;;;5074333;22;21010;-68
2023/10/26 08:52:36;;;;;;;16.10;15.60;;;23.00;88.10;;;;;;5051525;28;20478;-68
2023/10/26 08:55:05;;;;;;;15.63;15.03;;;23.00;88.10;;;;;;5051477;28;20498;-68
2023/10/26 08:57:31;;;;;;;14.53;13.83;;;23.00;88.10;;;;;;5051381;28;20472;-69
2023/10/26 08:59:59;;;;;;;14.70;14.30;;;23.00;88.10;;;;;;5042918;28;20523;-68
2023/10/26 09:02:26;;;;;;;14.77;14.37;;;23.00;88.10;;;;;;5043009;28;20448;-68
2023/10/26 09:05:01;;;;;;;15.17;14.70;;;22.90;88.10;;;;;;5043280;28;20440;-68
2023/10/26 09:07:29;;;;;;;14.33;13.93;;;23.00;88.10;;;;;;5043808;28;20526;-70
2023/10/26 09:09:56;;;;;;;15.93;15.43;;;23.00;88.10;;;;;;5044104;28;20504;-71
2023/10/26 09:12:23;;;;;;;14.90;14.50;;;23.00;88.10;;;;;;5047034;28;20452;-69
2023/10/26 09:14:59;;;;;;;14.63;14.23;;;22.90;88.10;;;;;;5047018;28;20480;-68
2023/10/26 09:17:27;;;;;;;14.60;14.20;;;23.00;88.10;;;;;;5036679;28;20465;-68
2023/10/26 09:19:55;;;;;;;15.23;14.73;;;22.90;88.00;;;;;;5043742;28;20886;-69
2023/10/26 09:22:37;;;;;;;14.63;14.23;;;22.90;88.10;;;;;;5046784;28;20468;-69
2023/10/26 09:25:11;;;;;;;15.20;14.70;;;22.90;88.00;;;;;;5045290;28;20444;-68
2023/10/26 09:27:38;;;;;;;14.13;13.73;;;22.90;88.00;;;;;;5043227;28;20994;-69
2023/10/26 09:30:07;;;;;;;14.87;14.37;;;22.90;88.10;;;;;;5044983;28;20891;-68
2023/10/26 09:32:34;;;;;;;15.00;14.60;;;22.90;88.10;;;;;;5046743;28;20874;-69
2023/10/26 09:35:02;;;;;;;15.43;14.93;;;22.90;88.10;;;;;;5045418;28;20966;-69
2023/10/26 09:37:31;;;;;;;15.47;15.07;;;22.90;88.10;;;;;;5043177;28;20468;-69
2023/10/26 09:39:58;;;;;;;14.70;14.20;;;22.90;88.20;;;;;;5043675;28;20488;-69
2023/10/26 09:42:28;;;;;;;15.90;15.50;;;22.90;88.10;;;;;;5046667;28;20443;-69
2023/10/26 09:44:54;;;;;;;15.47;14.97;;;22.90;88.10;;;;;;5046114;28;20468;-69
2023/10/26 09:47:22;;;;;;;15.70;15.20;;;22.90;88.10;;;;;;5043007;28;20468;-69
2023/10/26 09:49:49;;;;;;;14.83;14.43;;;22.90;88.10;;;;;;5042903;28;20496;-68
2023/10/26 09:52:16;;;;;;;15.87;15.37;;;22.90;88.10;;;;;;5045947;28;20491;-68
2023/10/26 09:54:45;;;;;;;15.47;14.83;;;22.90;88.10;;;;;;5046207;28;20475;-68
2023/10/26 09:57:18;;;;;;;15.40;14.90;;;22.90;88.10;;;;;;5043372;28;20472;-68
2023/10/26 09:59:46;;;;;;;15.30;14.90;;;22.90;88.20;;;;;;5042768;28;20488;-68
2023/10/26 10:02:14;;;;;;;15.43;14.93;;;22.90;88.20;;;;;;5045222;28;20483;-67
2023/10/26 10:04:41;;;;;;;15.53;15.13;;;22.90;88.20;;;;;;5046046;28;20444;-69
2023/10/26 10:07:08;;;;;;;15.50;15.10;;;22.90;88.20;;;;;;5043841;28;20484;-67
2023/10/26 10:10:05;;;;;;;15.43;14.93;;;22.90;88.20;;;;;;5042555;28;21004;-71
2023/10/26 10:12:32;;;;;;;15.27;14.80;;;22.90;88.20;;;;;;5036088;28;20445;-70
2023/10/26 10:15:03;;;;;;;15.43;14.83;;;22.90;88.20;;;;;;5043090;28;20440;-71
2023/10/26 10:18:12;;;;;;;15.93;15.43;;;22.90;88.20;;;;;;5045631;28;20448;-70
2023/10/26 10:20:41;;;;;;;15.20;14.80;;;22.90;88.20;;;;;;5036043;28;20449;-70
2023/10/26 10:23:08;;;;;;;15.43;15.03;;;22.90;88.30;;;;;;5044004;28;20461;-70
2023/10/26 10:26:02;;;;;;;15.23;14.80;;;22.90;88.30;;;;;;5045657;28;20440;-70
2023/10/26 10:28:54;;;;;;;15.40;15.00;;;22.90;88.30;;;;;;5035180;28;20508;-70
2023/10/26 10:31:40;;;;;;;14.27;13.90;;;22.90;88.30;;;;;;5034127;28;20449;-70
2023/10/26 10:34:10;;;;;;;14.73;14.13;;;22.90;88.30;;;;;;5043679;28;20863;-68
2023/10/26 10:37:08;;;;;;;15.40;14.90;;;22.90;88.90;;;;;;5045489;28;20444;-73
2023/10/26 10:39:35;;;;;;;15.83;15.43;;;22.90;90.30;;;;;;5035948;28;20489;-72
2023/10/26 10:42:08;;;;;;;16.53;16.03;;;22.90;90.20;;;;;;5042784;28;20484;-73
2023/10/26 10:44:37;;;;;;;14.27;13.80;;;22.90;90.30;;;;;;5045367;28;20476;-71
2023/10/26 10:47:04;;;;;;;15.10;14.60;;;22.90;90.20;;;;;;5044246;28;20474;-70
2023/10/26 10:49:31;;;;;;;15.00;14.50;;;23.00;90.60;;;;;;5041676;28;20508;-70
2023/10/26 10:51:58;;;;;;;15.70;15.30;;;23.00;90.50;;;;;;5041998;28;20456;-70
2023/10/26 10:54:25;;;;;;;15.87;15.37;;;23.00;90.80;;;;;;5045178;28;20468;-69
2023/10/26 10:56:52;;;;;;;15.80;15.30;;;23.10;90.90;;;;;;5045133;28;20472;-70
2023/10/26 10:59:22;;;;;;;15.70;15.00;;;23.10;90.90;;;;;;5041672;28;20488;-71
2023/10/26 11:01:50;;;;;;;14.60;14.20;;;23.20;91.50;;;;;;5041686;28;20442;-70
2023/10/26 11:04:18;;;;;;;15.23;14.80;;;23.20;91.30;;;;;;5044712;28;20911;-71
2023/10/26 11:06:47;;;;;;;18.70;18.10;;;23.20;91.50;;;;;;5046092;28;20444;-73
2023/10/26 11:09:24;;;;;;;17.83;17.23;;;23.20;91.10;;;;;;5044142;28;20538;-74
2023/10/26 11:11:51;;;;;;;17.77;17.20;;;23.20;91.20;;;;;;5042314;28;20447;-68
2023/10/26 11:14:20;;;;;;;17.63;17.03;;;23.20;91.20;;;;;;5045254;28;20479;-67
2023/10/26 11:16:49;;;;;;;16.60;16.10;;;23.20;91.30;;;;;;5045210;28;20808;-66
2023/10/26 11:19:16;;;;;;;16.77;16.27;;;23.30;91.50;;;;;;5042378;28;20516;-68
2023/10/26 11:21:42;;;;;;;17.10;16.50;;;23.40;91.20;;;;;;5041495;28;20472;-69
2023/10/26 11:24:09;;;;;;;17.97;17.47;;;23.40;91.10;;;;;;5043010;28;20502;-70
2023/10/26 11:26:36;;;;;;;17.00;16.40;;;23.40;91.10;;;;;;5044608;28;20464;-71
2023/10/26 11:29:04;;;;;;;16.97;16.47;;;23.40;90.80;;;;;;5042581;28;20573;-71
2023/10/26 11:31:41;;;;;;;17.20;16.67;;;23.40;90.80;;;;;;5041094;28;20477;-69
2023/10/26 11:34:10;;;;;;;17.20;16.70;;;23.40;90.90;;;;;;5042497;28;20449;-70
2023/10/26 11:36:38;;;;;;;17.67;17.07;;;23.30;90.70;;;;;;5044580;28;20475;-69
2023/10/26 11:39:05;;;;;;;17.23;16.73;;;23.30;90.60;;;;;;5043192;28;20491;-69
2023/10/26 11:41:34;;;;;;;17.30;16.80;;;23.30;90.60;;;;;;5040873;28;20473;-69
2023/10/26 11:44:03;;;;;;;17.20;16.70;;;23.30;90.60;;;;;;5041072;28;20460;-69
2023/10/26 11:46:34;;;;;;;17.53;16.83;;;23.30;90.50;;;;;;5044230;28;20857;-69
2023/10/26 11:49:02;;;;;;;16.80;16.30;;;23.30;90.50;;;;;;5043698;28;20519;-69
2023/10/26 11:51:31;;;;;;;16.83;16.30;;;23.30;90.50;;;;;;5048270;28;20472;-69
2023/10/26 11:54:09;;;;;;;17.40;16.90;;;23.30;90.50;;;;;;5040480;28;20445;-69
2023/10/26 11:56:36;;;;;;;16.60;16.10;;;23.30;90.50;;;;;;5034133;28;20443;-69
2023/10/26 11:59:03;;;;;;;17.00;16.30;;;23.30;90.40;;;;;;5040999;28;20463;-69
2023/10/26 12:01:30;;;;;;;17.60;17.10;;;23.30;90.40;;;;;;5043871;28;20468;-69
2023/10/26 12:03:57;;;;;;;16.80;16.30;;;23.30;90.40;;;;;;5043760;28;20472;-69
2023/10/26 12:06:24;;;;;;;17.43;16.93;;;23.30;90.30;;;;;;5043761;28;20490;-69
2023/10/26 12:08:52;;;;;;;16.83;16.10;;;23.30;90.50;;;;;;5052104;28;20511;-69
2023/10/26 12:11:19;;;;;;;18.13;17.53;;;23.30;90.30;;;;;;5041001;28;20473;-68
2023/10/26 12:13:46;;;;;;;17.53;17.03;;;23.30;90.30;;;;;;5040251;28;20473;-70
2023/10/26 12:16:12;;;;;;;16.30;15.90;;;23.30;90.30;;;;;;5042298;28;20473;-69
2023/10/26 12:18:39;;;;;;;16.50;16.00;;;23.30;90.30;;;;;;5046251;28;20503;-69
2023/10/26 12:21:06;;;;;;;15.77;15.27;;;23.20;90.20;;;;;;5041048;28;20500;-69
2023/10/26 12:23:32;;;;;;;17.17;16.57;;;23.30;90.20;;;;;;5047131;28;20861;-69
2023/10/26 12:26:00;;;;;;;17.50;16.27;;;23.20;90.20;;;;;;5039956;28;20500;-69
2023/10/26 12:28:27;;;;;;;17.10;16.50;;;23.20;90.20;;;;;;5039926;28;20297;-69
2023/10/26 12:30:54;;;;;;;17.80;17.20;;;23.20;90.20;;;;;;5039932;28;20832;-68
2023/10/26 12:33:21;;;;;;;18.10;17.60;;;23.20;90.20;;;;;;5042806;28;20517;-69
2023/10/26 12:35:48;;;;;;;16.87;16.37;;;23.20;90.20;;;;;;5043273;28;20472;-69